Time;durP1;ratioP1;P1;durP2;ratioP2;P2;SDS_P1;SDS_P2;PMS_P1;PMS_P2;Temp;Humidity;BMP_temperature;BMP_pressure;BME280_temperature;BME280_humidity;BME280_pressure;Samples;Min_cycle;Max_cycle;Signal;HPM_P1;HPM_P2
2022/09/30 00:01:28;;;;;;;10.45;5.60;;;9.60;99.90;;;;;;5027852;28;20513;-85
2022/09/30 00:03:56;;;;;;;9.32;5.93;;;9.60;99.90;;;;;;5012702;28;20053;-85
2022/09/30 00:06:24;;;;;;;9.32;5.47;;;9.60;99.90;;;;;;5007571;28;20041;-84
2022/09/30 00:08:52;;;;;;;11.07;5.25;;;9.60;99.90;;;;;;4975651;28;20057;-85
2022/09/30 00:11:21;;;;;;;9.95;5.63;;;9.60;99.90;;;;;;4995419;28;20053;-85
2022/09/30 00:13:50;;;;;;;10.52;5.38;;;9.60;99.90;;;;;;5011290;28;20049;-85
2022/09/30 00:16:18;;;;;;;13.98;5.40;;;9.60;99.90;;;;;;5013993;28;20042;-85
2022/09/30 00:18:45;;;;;;;10.30;5.50;;;9.60;99.90;;;;;;5012538;28;20034;-85
2022/09/30 00:23:45;;;;;;;10.50;5.40;;;9.60;99.90;;;;;;4968665;28;20039;-84
2022/09/30 00:26:16;;;;;;;10.75;5.32;;;9.60;99.90;;;;;;4962106;28;20122;-84
2022/09/30 00:28:43;;;;;;;9.35;5.80;;;9.50;99.90;;;;;;4969011;28;20122;-84
2022/09/30 00:31:14;;;;;;;9.65;6.13;;;9.50;99.90;;;;;;4971849;28;20133;-84
2022/09/30 00:33:41;;;;;;;10.55;5.13;;;9.50;99.90;;;;;;4935177;29;20055;-84
2022/09/30 00:36:08;;;;;;;12.32;6.30;;;9.50;99.90;;;;;;4953718;29;20047;-84
2022/09/30 00:38:35;;;;;;;10.30;6.28;;;9.50;99.90;;;;;;4953592;29;20054;-84
2022/09/30 00:41:04;;;;;;;10.48;6.13;;;9.50;99.90;;;;;;4954127;29;20427;-83
2022/09/30 00:43:44;;;;;;;11.25;6.10;;;9.50;99.90;;;;;;4953175;28;20753;-84
2022/09/30 00:46:19;;;;;;;9.88;5.97;;;9.40;99.90;;;;;;4953488;29;20527;-84
2022/09/30 00:48:49;;;;;;;13.52;6.28;;;9.40;99.90;;;;;;4934941;29;20050;-84
2022/09/30 00:51:17;;;;;;;10.18;6.25;;;9.40;99.90;;;;;;4952052;29;20050;-84
2022/09/30 00:53:48;;;;;;;10.95;6.38;;;9.40;99.90;;;;;;4953018;28;20118;-84
2022/09/30 00:56:19;;;;;;;14.95;6.55;;;9.40;99.90;;;;;;4935266;29;20513;-84
2022/09/30 00:58:49;;;;;;;11.23;5.57;;;9.40;99.90;;;;;;4953568;29;20039;-83
2022/09/30 01:01:16;;;;;;;13.25;5.88;;;9.40;99.90;;;;;;4935355;29;20051;-84
2022/09/30 01:03:48;;;;;;;9.55;5.80;;;9.40;99.90;;;;;;4952594;28;20043;-84
2022/09/30 01:06:15;;;;;;;9.98;5.97;;;9.30;99.90;;;;;;4944410;29;20058;-83
2022/09/30 01:08:43;;;;;;;11.73;6.15;;;9.30;99.90;;;;;;4952156;29;20039;-84
2022/09/30 01:11:09;;;;;;;12.77;6.07;;;9.30;99.90;;;;;;4953104;29;20047;-84
2022/09/30 01:13:37;;;;;;;10.57;5.93;;;9.30;99.90;;;;;;4952307;28;20047;-84
2022/09/30 01:16:19;;;;;;;10.25;5.80;;;9.30;99.90;;;;;;4953101;29;20051;-84
2022/09/30 01:18:58;;;;;;;10.85;5.57;;;9.30;99.90;;;;;;4952954;29;20410;-84
2022/09/30 01:22:00;;;;;;;12.73;7.10;;;9.20;99.90;;;;;;4933350;29;20389;-84
2022/09/30 01:24:53;;;;;;;11.60;6.55;;;9.20;99.90;;;;;;4949423;29;20058;-83
2022/09/30 01:27:41;;;;;;;10.93;6.10;;;9.20;99.90;;;;;;4906644;28;20069;-83
2022/09/30 01:30:12;;;;;;;15.30;5.93;;;9.20;99.90;;;;;;4949511;29;20063;-84
2022/09/30 01:32:48;;;;;;;;;;;9.20;99.90;;;;;;4953006;28;20055;-84
2022/09/30 01:35:21;;;;;;;11.65;5.53;;;9.10;99.90;;;;;;4952260;29;19938;-84
2022/09/30 01:37:58;;;;;;;10.02;5.53;;;9.20;99.90;;;;;;4952898;29;20058;-84
2022/09/30 01:40:29;;;;;;;9.80;5.32;;;9.10;99.90;;;;;;4952709;29;20110;-84
2022/09/30 01:43:04;;;;;;;9.10;5.65;;;9.10;99.90;;;;;;4952308;28;20102;-84
2022/09/30 01:45:36;;;;;;;9.18;5.40;;;9.10;99.90;;;;;;4951081;28;20039;-83
2022/09/30 01:48:09;;;;;;;9.88;4.70;;;9.10;99.90;;;;;;4936897;28;20577;-84
2022/09/30 01:50:43;;;;;;;13.55;5.60;;;9.00;99.90;;;;;;4951043;29;20047;-83
2022/09/30 01:53:17;;;;;;;10.27;5.70;;;9.00;99.90;;;;;;4943705;28;20051;-84
2022/09/30 01:55:48;;;;;;;10.77;5.25;;;9.00;99.90;;;;;;4951938;28;20066;-84
2022/09/30 01:58:19;;;;;;;11.00;5.97;;;9.00;99.90;;;;;;4952484;29;20043;-84
2022/09/30 02:00:49;;;;;;;10.55;5.90;;;8.90;99.90;;;;;;4952573;29;20061;-84
2022/09/30 02:03:21;;;;;;;10.40;5.68;;;9.00;99.90;;;;;;4950744;28;20061;-84
2022/09/30 02:05:53;;;;;;;10.18;6.18;;;9.00;99.90;;;;;;4937194;28;20051;-84
2022/09/30 02:08:24;;;;;;;10.82;5.78;;;9.00;99.90;;;;;;4938786;29;20043;-84
2022/09/30 02:10:55;;;;;;;10.68;5.63;;;9.00;99.90;;;;;;4952280;29;20047;-84
2022/09/30 02:13:25;;;;;;;10.85;5.18;;;9.00;99.90;;;;;;4951252;28;20504;-84
2022/09/30 02:15:55;;;;;;;12.27;6.00;;;9.00;99.90;;;;;;4936400;28;20047;-84
2022/09/30 02:18:29;;;;;;;14.07;6.00;;;9.00;99.90;;;;;;4949150;29;20043;-84
2022/09/30 02:21:00;;;;;;;11.07;5.30;;;9.00;99.90;;;;;;4951579;28;20082;-84
2022/09/30 02:23:30;;;;;;;9.30;5.60;;;9.00;99.90;;;;;;4945042;28;20043;-84
2022/09/30 02:26:04;;;;;;;11.88;5.88;;;8.90;99.90;;;;;;4951587;28;20051;-84
2022/09/30 02:28:32;;;;;;;9.85;5.55;;;8.90;99.90;;;;;;4951523;29;20035;-84
2022/09/30 02:31:00;;;;;;;10.82;5.78;;;8.90;99.90;;;;;;4952245;28;20497;-84
2022/09/30 02:33:33;;;;;;;11.07;5.70;;;8.90;99.90;;;;;;4950022;28;20051;-85
2022/09/30 02:36:04;;;;;;;12.20;5.60;;;8.90;99.90;;;;;;4951345;29;20058;-84
2022/09/30 02:38:35;;;;;;;;;;;8.90;99.90;;;;;;4951172;28;20094;-84
2022/09/30 02:41:05;;;;;;;10.85;5.65;;;8.90;99.90;;;;;;4951456;28;19937;-84
2022/09/30 02:43:32;;;;;;;10.00;5.22;;;8.90;99.90;;;;;;4951326;28;20412;-84
2022/09/30 02:46:05;;;;;;;11.57;5.47;;;8.80;99.90;;;;;;4951122;28;20058;-84
2022/09/30 02:48:38;;;;;;;10.68;5.45;;;8.90;99.90;;;;;;4951786;29;20069;-84
2022/09/30 02:51:14;;;;;;;13.15;5.75;;;8.90;99.90;;;;;;4951485;29;20070;-84
2022/09/30 02:53:45;;;;;;;10.80;5.78;;;9.10;99.90;;;;;;4950990;28;20047;-84
2022/09/30 02:56:19;;;;;;;11.13;4.95;;;8.80;99.90;;;;;;4964475;28;20058;-84
2022/09/30 02:58:47;;;;;;;9.57;5.40;;;8.70;99.90;;;;;;4949405;28;20051;-84
2022/09/30 03:01:16;;;;;;;8.50;5.10;;;8.70;99.90;;;;;;4951296;29;20043;-84
2022/09/30 03:03:46;;;;;;;9.43;5.25;;;8.80;99.90;;;;;;4972377;28;20431;-84
2022/09/30 03:06:13;;;;;;;10.63;5.57;;;8.70;99.90;;;;;;4951205;29;20054;-84
2022/09/30 03:08:40;;;;;;;10.05;4.63;;;8.70;99.90;;;;;;4951437;28;20051;-84
2022/09/30 03:11:07;;;;;;;9.82;5.00;;;8.70;99.90;;;;;;4951250;28;20043;-84
2022/09/30 03:14:06;;;;;;;8.27;5.10;;;8.70;99.90;;;;;;4949377;28;20043;-84
2022/09/30 03:16:49;;;;;;;11.27;5.65;;;8.70;99.90;;;;;;4925731;28;20055;-84
2022/09/30 03:19:30;;;;;;;12.20;6.05;;;8.70;99.90;;;;;;4950655;28;20064;-84
2022/09/30 03:22:11;;;;;;;18.50;5.93;;;8.70;99.90;;;;;;4950778;28;20055;-84
2022/09/30 03:24:50;;;;;;;7.40;5.15;;;8.70;99.90;;;;;;4947366;28;20047;-84
2022/09/30 03:27:23;;;;;;;10.00;5.22;;;8.70;99.90;;;;;;4940127;28;20563;-84
2022/09/30 03:30:01;;;;;;;8.27;5.22;;;8.70;99.90;;;;;;4936869;29;20035;-84
2022/09/30 03:32:43;;;;;;;11.43;5.50;;;8.70;99.90;;;;;;4949743;28;20883;-84
2022/09/30 03:35:19;;;;;;;10.07;5.40;;;8.70;99.90;;;;;;4948765;29;20050;-84
2022/09/30 03:37:52;;;;;;;14.63;6.00;;;8.70;99.90;;;;;;4965705;28;20063;-84
2022/09/30 03:40:27;;;;;;;8.57;5.25;;;8.70;99.90;;;;;;4950744;29;20051;-83
2022/09/30 03:42:57;;;;;;;11.77;5.70;;;8.70;99.90;;;;;;4950143;28;20519;-85
2022/09/30 03:45:28;;;;;;;10.40;5.55;;;8.70;99.90;;;;;;4950379;28;20281;-84
2022/09/30 03:47:55;;;;;;;;;;;8.70;99.90;;;;;;4943297;29;20047;-84
2022/09/30 03:50:25;;;;;;;11.35;5.60;;;8.60;99.90;;;;;;4945659;28;19941;-84
2022/09/30 03:52:55;;;;;;;12.98;5.35;;;8.60;99.90;;;;;;4949886;28;20127;-84
2022/09/30 03:55:23;;;;;;;12.55;6.07;;;8.60;99.90;;;;;;4950063;29;20043;-84
2022/09/30 03:57:50;;;;;;;9.68;5.75;;;8.60;99.90;;;;;;4950847;29;20051;-83
2022/09/30 04:00:17;;;;;;;9.85;5.50;;;8.70;99.90;;;;;;4949780;29;20122;-87
2022/09/30 04:02:45;;;;;;;8.50;5.30;;;8.60;99.90;;;;;;4948337;28;20146;-83
2022/09/30 04:05:12;;;;;;;10.02;5.97;;;8.70;99.90;;;;;;4939158;29;20411;-85
2022/09/30 04:07:40;;;;;;;8.82;5.22;;;8.60;99.90;;;;;;4944833;28;20058;-87
2022/09/30 04:10:08;;;;;;;11.60;5.47;;;8.60;99.90;;;;;;4958627;28;20047;-86
2022/09/30 04:12:34;;;;;;;14.57;5.60;;;8.60;99.90;;;;;;4949977;28;20058;-80
2022/09/30 04:15:01;;;;;;;10.85;6.32;;;8.50;99.90;;;;;;4950351;28;20126;-81
2022/09/30 04:17:28;;;;;;;11.13;5.97;;;8.60;99.90;;;;;;4965283;28;20076;-80
2022/09/30 04:19:55;;;;;;;9.63;5.93;;;8.60;99.90;;;;;;4950320;29;20415;-80
2022/09/30 04:22:22;;;;;;;9.80;5.75;;;8.60;99.90;;;;;;4949833;28;20047;-80
2022/09/30 04:24:50;;;;;;;9.38;5.35;;;8.60;99.90;;;;;;4950273;29;20050;-82
2022/09/30 04:27:17;;;;;;;8.00;5.43;;;8.60;99.90;;;;;;4948798;28;20068;-80
2022/09/30 04:29:44;;;;;;;11.35;6.20;;;8.50;99.90;;;;;;4950174;28;20050;-80
2022/09/30 04:32:11;;;;;;;11.40;5.82;;;8.50;99.90;;;;;;4949231;28;20044;-81
2022/09/30 04:34:38;;;;;;;9.43;5.43;;;8.60;99.90;;;;;;4950005;29;20031;-87
2022/09/30 04:37:04;;;;;;;11.07;5.88;;;8.50;99.90;;;;;;4950945;28;22150;-80
2022/09/30 04:39:31;;;;;;;12.65;5.72;;;8.50;99.90;;;;;;4953891;29;20445;-80
2022/09/30 04:42:00;;;;;;;9.82;5.55;;;8.50;99.90;;;;;;4952226;28;20127;-79
2022/09/30 04:44:26;;;;;;;10.52;6.13;;;8.50;99.90;;;;;;4952285;29;20043;-79
2022/09/30 04:46:53;;;;;;;10.13;6.00;;;8.50;99.90;;;;;;4938010;29;20440;-79
2022/09/30 04:49:21;;;;;;;9.43;5.32;;;8.50;99.90;;;;;;4953787;29;20080;-80
2022/09/30 04:51:47;;;;;;;11.20;6.05;;;8.50;99.90;;;;;;4952748;28;20118;-81
2022/09/30 04:54:15;;;;;;;10.35;6.20;;;8.50;99.90;;;;;;4951901;29;20063;-81
2022/09/30 04:56:42;;;;;;;10.57;6.43;;;8.50;99.90;;;;;;4953437;28;20549;-81
2022/09/30 04:59:10;;;;;;;10.98;6.63;;;8.50;99.90;;;;;;4968323;28;20702;-81
2022/09/30 05:01:38;;;;;;;9.60;6.07;;;8.50;99.90;;;;;;4951358;28;20050;-88
2022/09/30 05:04:05;;;;;;;11.50;6.43;;;8.50;99.90;;;;;;4945792;28;20538;-83
2022/09/30 05:06:32;;;;;;;12.55;6.75;;;8.50;99.90;;;;;;4951301;29;20530;-86
2022/09/30 05:08:59;;;;;;;8.85;5.80;;;8.50;99.90;;;;;;4935813;29;20052;-84
2022/09/30 05:11:26;;;;;;;8.52;5.88;;;8.50;99.90;;;;;;4949510;28;20500;-85
2022/09/30 05:13:54;;;;;;;9.55;6.57;;;8.50;99.90;;;;;;4945101;28;20066;-84
2022/09/30 05:16:22;;;;;;;10.52;6.05;;;8.50;99.90;;;;;;4948792;29;20051;-85
2022/09/30 05:18:49;;;;;;;9.43;6.13;;;8.50;99.90;;;;;;4949372;28;20043;-85
2022/09/30 05:21:19;;;;;;;11.88;6.38;;;8.40;99.90;;;;;;4960122;28;20043;-85
2022/09/30 05:23:46;;;;;;;12.85;6.28;;;8.40;99.90;;;;;;4952533;28;20054;-85
2022/09/30 05:26:13;;;;;;;12.93;6.65;;;8.40;99.90;;;;;;4952801;29;20084;-89
2022/09/30 05:28:40;;;;;;;12.07;5.78;;;8.40;99.90;;;;;;4949943;29;20035;-86
2022/09/30 05:31:07;;;;;;;12.25;6.60;;;8.40;99.90;;;;;;4951635;28;20047;-85
2022/09/30 05:33:36;;;;;;;12.05;6.70;;;8.40;99.90;;;;;;4944935;29;20049;-85
2022/09/30 05:36:05;;;;;;;11.35;6.25;;;8.40;99.90;;;;;;4944696;28;20054;-85
2022/09/30 05:38:32;;;;;;;10.93;6.55;;;8.40;99.90;;;;;;4941444;28;20066;-84
2022/09/30 05:41:06;;;;;;;10.95;6.10;;;8.40;99.90;;;;;;4944227;29;20509;-88
2022/09/30 05:43:33;;;;;;;18.45;7.20;;;8.30;99.90;;;;;;4950619;29;20047;-87
2022/09/30 05:46:00;;;;;;;11.23;6.60;;;8.30;99.90;;;;;;4945518;28;20051;-85
2022/09/30 05:48:27;;;;;;;12.75;6.82;;;8.30;99.90;;;;;;4951062;28;20051;-84
2022/09/30 05:50:56;;;;;;;11.63;7.32;;;8.30;99.90;;;;;;4952428;28;20055;-83
2022/09/30 05:53:23;;;;;;;11.50;7.15;;;8.40;99.90;;;;;;4944868;29;20050;-84
2022/09/30 05:55:50;;;;;;;15.18;6.85;;;8.30;99.90;;;;;;4943671;28;20110;-84
2022/09/30 05:58:17;;;;;;;13.45;7.03;;;8.30;99.90;;;;;;4941910;28;20051;-84
2022/09/30 06:00:46;;;;;;;13.90;7.22;;;8.30;99.90;;;;;;4951784;28;20035;-84
2022/09/30 06:03:13;;;;;;;11.20;7.03;;;8.40;99.90;;;;;;4940519;29;20515;-85
2022/09/30 06:05:40;;;;;;;12.32;7.38;;;8.40;99.90;;;;;;4941115;29;20107;-84
2022/09/30 06:08:11;;;;;;;12.27;7.32;;;8.40;99.90;;;;;;4952110;29;20043;-84
2022/09/30 06:10:40;;;;;;;12.18;6.97;;;8.40;99.90;;;;;;4952201;29;20051;-84
2022/09/30 06:13:07;;;;;;;15.20;7.22;;;8.40;99.90;;;;;;4952059;29;20054;-84
2022/09/30 06:15:35;;;;;;;11.35;6.63;;;8.40;99.90;;;;;;4942479;28;20046;-84
2022/09/30 06:18:02;;;;;;;12.90;6.80;;;8.40;99.90;;;;;;4945989;29;20146;-84
2022/09/30 06:20:30;;;;;;;11.38;6.47;;;8.40;99.90;;;;;;4950741;29;20386;-84
2022/09/30 06:22:59;;;;;;;10.93;6.72;;;8.40;99.90;;;;;;5003951;23;20138;-77
2022/09/30 06:25:28;;;;;;;12.13;6.82;;;8.40;99.90;;;;;;5031518;28;20120;-77
2022/09/30 06:27:54;;;;;;;12.07;7.32;;;8.50;99.90;;;;;;5029712;28;20116;-77
2022/09/30 06:30:21;;;;;;;15.07;7.80;;;8.50;99.90;;;;;;5029530;28;20042;-78
2022/09/30 06:32:48;;;;;;;11.30;6.80;;;8.60;99.90;;;;;;5038270;28;20075;-78
2022/09/30 06:35:16;;;;;;;11.93;7.50;;;8.60;99.90;;;;;;5036122;28;20048;-78
2022/09/30 06:37:44;;;;;;;11.13;7.18;;;8.60;99.90;;;;;;5049469;28;20040;-78
2022/09/30 06:40:11;;;;;;;13.95;6.93;;;8.70;99.90;;;;;;5049413;28;20049;-78
2022/09/30 06:42:40;;;;;;;11.32;7.50;;;8.70;99.90;;;;;;5049227;28;20051;-78
2022/09/30 06:45:09;;;;;;;11.90;7.28;;;8.70;99.90;;;;;;5027615;28;20144;-78
2022/09/30 06:47:37;;;;;;;12.40;7.20;;;8.70;99.90;;;;;;5048085;28;20045;-78
2022/09/30 06:50:04;;;;;;;13.23;7.80;;;8.80;99.90;;;;;;5049028;28;20048;-78
2022/09/30 06:52:31;;;;;;;16.25;8.15;;;8.80;99.90;;;;;;5048758;28;20041;-78
2022/09/30 06:54:58;;;;;;;14.98;7.35;;;8.80;99.90;;;;;;5045547;28;20060;-78
2022/09/30 06:57:26;;;;;;;12.13;8.15;;;8.90;99.90;;;;;;5047352;28;20502;-78
2022/09/30 06:59:55;;;;;;;13.07;8.45;;;8.90;99.90;;;;;;5048148;28;20044;-78
2022/09/30 07:02:21;;;;;;;16.35;8.75;;;9.00;99.90;;;;;;5048840;28;20752;-78
2022/09/30 07:04:49;;;;;;;13.25;8.50;;;9.00;99.90;;;;;;5027721;28;20053;-78
2022/09/30 07:07:16;;;;;;;21.75;9.95;;;9.10;99.90;;;;;;5029432;28;20055;-79
2022/09/30 07:09:43;;;;;;;21.65;12.45;;;9.20;99.90;;;;;;5048304;28;20051;-78
2022/09/30 07:12:10;;;;;;;26.50;13.27;;;9.30;99.90;;;;;;5031090;28;20052;-78
2022/09/30 07:14:36;;;;;;;23.00;13.57;;;9.30;99.90;;;;;;5028876;28;20427;-78
2022/09/30 07:17:06;;;;;;;25.92;14.85;;;9.50;99.90;;;;;;5044367;28;20071;-78
2022/09/30 07:19:34;;;;;;;22.88;13.32;;;9.60;99.90;;;;;;5049069;28;20413;-78
2022/09/30 07:22:26;;;;;;;23.30;12.93;;;9.60;99.90;;;;;;5048373;28;20041;-78
2022/09/30 07:24:49;;;;;;;19.70;12.13;;;9.70;99.90;;;;;;5025930;28;20197;-78
2022/09/30 07:27:16;;;;;;;22.13;11.75;;;9.80;99.90;;;;;;5046966;28;20433;-79
2022/09/30 07:29:43;;;;;;;23.05;11.43;;;9.90;99.90;;;;;;5047820;28;20045;-78
2022/09/30 07:32:11;;;;;;;19.88;12.35;;;10.00;99.90;;;;;;5030041;28;20049;-78
2022/09/30 07:34:42;;;;;;;17.27;11.73;;;10.00;99.90;;;;;;5039239;28;20048;-78
2022/09/30 07:37:11;;;;;;;20.17;11.57;;;10.10;99.90;;;;;;5047147;28;20056;-78
2022/09/30 07:39:38;;;;;;;19.35;10.50;;;10.20;99.90;;;;;;5030216;28;20053;-78
2022/09/30 07:42:05;;;;;;;20.63;10.40;;;10.20;99.90;;;;;;5048287;28;20045;-79
2022/09/30 07:44:32;;;;;;;16.50;11.05;;;10.30;99.90;;;;;;5045975;28;20051;-78
2022/09/30 07:47:00;;;;;;;17.85;10.55;;;10.40;99.90;;;;;;5044752;28;20513;-78
2022/09/30 07:49:28;;;;;;;22.48;11.27;;;10.40;99.90;;;;;;5038024;28;20458;-78
2022/09/30 07:51:57;;;;;;;20.45;11.32;;;10.50;99.90;;;;;;5048496;28;20452;-78
2022/09/30 07:54:27;;;;;;;19.40;11.38;;;10.60;99.90;;;;;;5044554;28;20045;-79
2022/09/30 07:56:55;;;;;;;20.65;11.70;;;10.70;99.90;;;;;;5044804;28;20120;-78
2022/09/30 07:59:22;;;;;;;18.92;10.82;;;10.70;99.90;;;;;;5048116;28;20036;-79
2022/09/30 08:01:50;;;;;;;19.65;11.98;;;10.80;99.90;;;;;;5048157;28;20045;-78
2022/09/30 08:04:18;;;;;;;18.10;11.85;;;10.80;99.90;;;;;;5041095;28;20049;-80
2022/09/30 08:06:48;;;;;;;17.58;11.55;;;10.90;99.90;;;;;;5026763;28;20045;-79
2022/09/30 08:09:17;;;;;;;19.63;12.20;;;10.90;99.90;;;;;;5048595;28;20048;-81
2022/09/30 08:11:45;;;;;;;19.15;12.18;;;11.00;99.90;;;;;;5031672;28;20167;-79
2022/09/30 08:14:15;;;;;;;19.80;12.27;;;11.10;99.90;;;;;;5030260;28;20589;-79
2022/09/30 08:16:41;;;;;;;20.17;12.40;;;11.10;99.90;;;;;;5037064;28;20144;-77
2022/09/30 08:19:14;;;;;;;21.77;13.27;;;11.20;99.90;;;;;;5041618;28;20119;-79
2022/09/30 08:21:41;;;;;;;22.80;14.40;;;11.20;99.90;;;;;;5051614;28;20142;-78
2022/09/30 08:24:10;;;;;;;24.25;13.70;;;11.30;99.90;;;;;;5030405;28;20045;-78
2022/09/30 08:26:37;;;;;;;20.90;13.88;;;11.30;99.90;;;;;;5028414;28;20041;-79
2022/09/30 08:29:04;;;;;;;23.55;13.75;;;11.40;99.90;;;;;;5023132;28;20046;-79
2022/09/30 08:31:32;;;;;;;20.40;13.40;;;11.50;99.90;;;;;;5032055;28;20041;-79
2022/09/30 08:33:59;;;;;;;19.80;14.27;;;11.50;99.90;;;;;;5025015;28;20129;-79
2022/09/30 08:36:27;;;;;;;22.30;13.98;;;11.60;99.90;;;;;;5031028;28;20619;-78
2022/09/30 08:38:54;;;;;;;24.27;13.93;;;11.70;99.90;;;;;;5032151;28;20430;-78
2022/09/30 08:41:56;;;;;;;24.63;13.93;;;11.70;99.90;;;;;;5031523;28;20052;-79
2022/09/30 08:44:31;;;;;;;20.00;13.05;;;11.80;99.90;;;;;;5010830;28;20053;-78
2022/09/30 08:47:06;;;;;;;20.00;13.20;;;11.80;99.90;;;;;;5014764;28;20061;-79
2022/09/30 08:49:45;;;;;;;23.08;13.55;;;11.90;99.90;;;;;;5030911;28;20045;-78
2022/09/30 08:52:16;;;;;;;21.85;13.98;;;12.00;99.90;;;;;;5005567;28;20046;-78
2022/09/30 08:54:46;;;;;;;21.90;14.43;;;12.00;99.90;;;;;;5018081;28;20061;-79
2022/09/30 08:57:15;;;;;;;19.38;13.70;;;12.10;99.90;;;;;;5013714;28;20049;-79
2022/09/30 08:59:45;;;;;;;21.25;13.65;;;12.20;99.90;;;;;;5023396;28;20049;-79
2022/09/30 09:02:18;;;;;;;22.77;13.60;;;12.20;99.90;;;;;;5031164;28;20406;-79
2022/09/30 09:04:46;;;;;;;20.80;13.80;;;12.30;99.90;;;;;;5027351;28;20073;-79
2022/09/30 09:07:22;;;;;;;23.25;13.88;;;12.30;99.90;;;;;;5029708;28;20049;-80
2022/09/30 09:09:59;;;;;;;21.27;12.30;;;12.40;99.90;;;;;;5031329;28;20048;-80
2022/09/30 09:12:35;;;;;;;25.15;14.32;;;12.50;99.90;;;;;;5031366;28;20040;-79
2022/09/30 09:15:15;;;;;;;21.77;14.10;;;12.50;99.90;;;;;;5026253;28;20049;-80
2022/09/30 09:17:58;;;;;;;22.10;13.65;;;12.60;99.90;;;;;;5029435;28;20116;-79
2022/09/30 09:20:29;;;;;;;24.83;15.38;;;12.60;99.90;;;;;;5031237;28;20406;-78
2022/09/30 09:22:56;;;;;;;23.60;14.88;;;12.60;99.90;;;;;;5039339;28;20055;-78
2022/09/30 09:25:26;;;;;;;26.08;14.63;;;12.70;99.90;;;;;;5045807;28;20043;-79
2022/09/30 09:27:56;;;;;;;21.67;15.27;;;12.70;99.90;;;;;;5047543;28;20053;-79
2022/09/30 09:30:24;;;;;;;24.77;14.90;;;12.70;99.90;;;;;;5036664;28;20048;-79
2022/09/30 09:32:55;;;;;;;23.73;14.68;;;12.80;99.90;;;;;;5050435;28;20091;-79
2022/09/30 09:35:29;;;;;;;21.17;14.50;;;12.80;99.90;;;;;;5043919;28;20155;-79
2022/09/30 09:40:56;;;;;;;19.25;13.20;;;13.00;99.90;;;;;;5050248;28;20051;-79
2022/09/30 09:43:30;;;;;;;19.08;13.23;;;13.00;99.90;;;;;;5050513;28;20048;-79
2022/09/30 09:46:02;;;;;;;25.15;13.95;;;13.10;99.90;;;;;;5043031;28;20079;-78
2022/09/30 09:48:34;;;;;;;18.48;12.75;;;13.10;99.90;;;;;;5050984;28;20076;-78
2022/09/30 09:51:03;;;;;;;16.92;11.68;;;13.10;99.90;;;;;;5049879;28;20047;-79
2022/09/30 09:53:44;;;;;;;21.88;12.98;;;13.20;99.90;;;;;;5050424;28;20056;-78
2022/09/30 09:56:20;;;;;;;17.15;12.20;;;13.20;99.90;;;;;;5039041;28;20040;-78
2022/09/30 09:59:08;;;;;;;21.15;12.55;;;13.30;99.90;;;;;;5037252;28;20044;-78
2022/09/30 10:01:36;;;;;;;18.30;11.80;;;13.30;99.90;;;;;;5038423;28;20063;-78
2022/09/30 10:04:14;;;;;;;17.52;11.25;;;13.30;99.90;;;;;;5041119;28;20048;-78
2022/09/30 10:06:46;;;;;;;17.35;11.00;;;13.40;99.90;;;;;;5028270;28;20468;-79
2022/09/30 10:09:26;;;;;;;21.13;12.35;;;13.40;99.90;;;;;;5040434;28;20059;-79
2022/09/30 10:12:26;;;;;;;17.23;11.70;;;13.50;99.90;;;;;;5022642;28;21657;-79
2022/09/30 10:14:59;;;;;;;16.23;11.43;;;13.50;99.90;;;;;;5039124;28;20128;-80
2022/09/30 10:17:28;;;;;;;15.98;10.88;;;13.60;99.90;;;;;;5042379;28;20310;-78
2022/09/30 10:19:59;;;;;;;15.95;11.27;;;13.60;99.90;;;;;;5039044;28;20049;-78
2022/09/30 10:22:29;;;;;;;13.63;10.45;;;13.60;99.90;;;;;;5037917;28;20116;-78
2022/09/30 10:25:19;;;;;;;13.65;10.57;;;13.60;99.90;;;;;;5043063;28;20095;-78
2022/09/30 10:27:52;;;;;;;15.75;11.68;;;13.70;99.90;;;;;;5038643;28;20052;-78
2022/09/30 10:30:40;;;;;;;18.88;10.98;;;13.70;99.90;;;;;;5040485;28;20048;-78
2022/09/30 10:33:14;;;;;;;16.63;10.80;;;13.80;99.90;;;;;;5034203;28;20071;-77
2022/09/30 10:35:54;;;;;;;15.48;10.73;;;13.90;99.90;;;;;;5035521;28;20466;-77
2022/09/30 10:38:23;;;;;;;18.40;11.10;;;13.90;99.90;;;;;;5029184;28;20414;-78
2022/09/30 10:40:50;;;;;;;14.63;9.85;;;13.90;99.90;;;;;;5026588;28;20751;-77
2022/09/30 10:43:29;;;;;;;19.35;11.05;;;13.90;99.90;;;;;;5036115;28;20048;-77
2022/09/30 10:46:02;;;;;;;17.27;9.93;;;14.00;99.90;;;;;;5037920;28;20096;-78
2022/09/30 10:48:33;;;;;;;17.50;10.20;;;14.00;99.90;;;;;;5043047;28;20047;-76
2022/09/30 10:51:00;;;;;;;16.80;9.95;;;14.00;99.90;;;;;;5041180;28;20044;-77
2022/09/30 10:53:29;;;;;;;15.65;10.25;;;14.00;99.90;;;;;;5048710;28;20053;-77
2022/09/30 10:55:56;;;;;;;14.60;9.00;;;14.10;99.90;;;;;;5044396;28;20051;-77
2022/09/30 10:58:29;;;;;;;15.65;9.50;;;14.10;99.90;;;;;;5048694;28;20493;-77
2022/09/30 11:01:10;;;;;;;18.80;8.85;;;14.20;99.90;;;;;;5019215;28;20055;-77
2022/09/30 11:03:41;;;;;;;11.63;7.20;;;14.20;99.90;;;;;;5018089;28;20395;-77
2022/09/30 11:06:12;;;;;;;14.80;7.65;;;14.20;99.90;;;;;;5038043;28;20063;-77
2022/09/30 11:08:43;;;;;;;15.13;7.55;;;14.20;99.90;;;;;;5024997;28;20054;-77
2022/09/30 11:11:14;;;;;;;13.93;7.40;;;14.20;99.90;;;;;;5027283;28;20149;-77
2022/09/30 11:13:45;;;;;;;10.55;6.90;;;14.20;99.90;;;;;;5039641;28;20409;-77
2022/09/30 11:16:17;;;;;;;13.80;7.15;;;14.30;99.90;;;;;;5016667;28;20045;-77
2022/09/30 11:18:47;;;;;;;12.25;6.80;;;14.30;99.90;;;;;;5046145;28;20033;-77
2022/09/30 11:21:18;;;;;;;12.17;6.03;;;14.40;99.90;;;;;;5049199;28;20044;-77
2022/09/30 11:23:48;;;;;;;11.50;5.97;;;14.40;99.90;;;;;;5045474;28;20449;-77
2022/09/30 11:26:23;;;;;;;11.40;6.43;;;14.40;99.90;;;;;;5035696;28;20061;-77
2022/09/30 11:29:11;;;;;;;11.55;6.05;;;14.40;99.90;;;;;;5045316;28;20049;-77
2022/09/30 11:31:46;;;;;;;20.63;6.60;;;14.40;99.90;;;;;;5035791;28;20037;-78
2022/09/30 11:34:26;;;;;;;10.32;6.45;;;14.50;99.90;;;;;;5038597;28;20124;-77
2022/09/30 11:37:00;;;;;;;15.35;6.80;;;14.60;99.90;;;;;;5038536;28;20078;-77
2022/09/30 11:39:49;;;;;;;13.35;5.93;;;14.60;99.90;;;;;;5044326;28;20118;-78
2022/09/30 11:42:20;;;;;;;10.00;6.25;;;14.60;99.90;;;;;;5043397;28;20051;-78
2022/09/30 11:44:47;;;;;;;11.00;6.35;;;14.60;99.90;;;;;;5035426;28;20119;-78
2022/09/30 11:47:34;;;;;;;12.70;6.47;;;14.60;99.90;;;;;;5040576;28;20041;-78
2022/09/30 11:50:30;;;;;;;9.90;5.40;;;14.60;99.90;;;;;;5037773;28;20521;-78
2022/09/30 11:53:12;;;;;;;10.85;6.75;;;14.70;99.90;;;;;;5008411;28;20053;-78
2022/09/30 11:56:00;;;;;;;12.07;6.53;;;14.70;99.90;;;;;;5020994;28;20047;-78
2022/09/30 11:58:34;;;;;;;12.25;6.30;;;14.70;99.90;;;;;;5040249;28;20045;-77
2022/09/30 12:01:17;;;;;;;8.65;5.50;;;14.70;99.90;;;;;;5046428;28;20057;-78
2022/09/30 12:03:54;;;;;;;8.93;5.38;;;14.70;99.90;;;;;;5042567;28;20120;-78
2022/09/30 12:06:26;;;;;;;9.00;5.75;;;14.70;99.90;;;;;;5044966;28;20056;-78
2022/09/30 12:08:56;;;;;;;7.60;4.85;;;14.70;99.90;;;;;;5037244;28;20054;-78
2022/09/30 12:11:36;;;;;;;12.63;6.53;;;14.70;99.90;;;;;;5028274;28;20042;-78
2022/09/30 12:14:05;;;;;;;13.10;6.05;;;14.80;99.90;;;;;;5021046;28;20080;-78
2022/09/30 12:16:33;;;;;;;13.85;6.88;;;14.80;99.90;;;;;;5044054;28;20049;-78
2022/09/30 12:19:11;;;;;;;11.93;7.10;;;14.80;99.90;;;;;;5044984;28;20053;-78
2022/09/30 12:21:41;;;;;;;13.75;7.30;;;14.80;99.90;;;;;;5038241;28;20034;-78
2022/09/30 12:24:17;;;;;;;10.80;6.22;;;14.80;99.90;;;;;;5038493;28;20040;-78
2022/09/30 12:26:46;;;;;;;14.80;6.97;;;14.70;99.90;;;;;;5038607;28;20064;-78
2022/09/30 12:32:26;;;;;;;11.60;6.88;;;14.80;99.90;;;;;;5039496;28;20127;-78
2022/09/30 12:35:18;;;;;;;12.25;6.63;;;14.80;99.90;;;;;;5038394;28;20529;-77
2022/09/30 12:37:48;;;;;;;;;;;14.80;99.90;;;;;;5037355;28;20055;-77
2022/09/30 12:40:30;;;;;;;9.90;5.90;;;14.80;99.90;;;;;;5037295;28;19932;-78
2022/09/30 12:43:31;;;;;;;13.73;6.35;;;14.90;99.90;;;;;;5044065;28;20049;-78
2022/09/30 12:46:17;;;;;;;12.02;6.43;;;14.80;99.90;;;;;;5040019;28;20145;-76
2022/09/30 12:48:46;;;;;;;12.07;5.65;;;14.90;99.90;;;;;;5034189;28;20498;-76
2022/09/30 12:51:24;;;;;;;10.10;5.13;;;14.90;99.90;;;;;;5033627;28;20052;-76
2022/09/30 12:53:54;;;;;;;9.32;5.30;;;14.90;99.90;;;;;;5039474;28;20053;-78
2022/09/30 12:56:26;;;;;;;11.07;5.25;;;14.90;99.90;;;;;;5036800;28;20045;-76
2022/09/30 12:58:53;;;;;;;11.00;5.45;;;14.90;99.90;;;;;;5043152;28;20056;-76
2022/09/30 13:01:23;;;;;;;9.93;4.97;;;14.90;99.90;;;;;;5050525;28;20047;-76
2022/09/30 13:03:52;;;;;;;7.20;4.57;;;14.90;99.90;;;;;;5047841;28;20041;-76
2022/09/30 13:06:22;;;;;;;7.90;5.20;;;14.90;99.90;;;;;;5033878;28;20049;-76
2022/09/30 13:09:07;;;;;;;9.13;5.10;;;14.90;99.90;;;;;;5021083;28;20418;-76
2022/09/30 13:11:37;;;;;;;10.98;5.50;;;14.90;99.90;;;;;;5044010;28;20052;-76
2022/09/30 13:14:24;;;;;;;10.38;5.53;;;15.00;99.90;;;;;;5037549;28;20073;-76